CJA weather

Public forecast

Using degrees Celsius for public forecast. Weather courtesy of forecast.io.

Current aviation weather report (METAR) for Mayor General FAP Armando Revoredo Iglesias Airport

Report is more than 6 hours old.

Retrieved 2020/08/10 19:00 UTC (15 hours ago):

SPJR 101900Z VRB04KT 9999 SCT030 23/03 Q1025 RMK PP000

Aviation forecast (TAF) for Mayor General FAP Armando Revoredo Iglesias Airport

Forecast is more than 12 hours old.

Retrieved 2020/08/10 18:33 UTC (15 hours ago):

TAF SPJR 101705Z 1018/1118 09012KT 9999 SCT030 TX24/1019Z TN05/1111Z FM110600 06007KT 9999 SCT020